sensor_id;sensor_type;location;lat;lon;timestamp;P1;durP1;ratioP1;P2;durP2;ratioP2
70216;SDS011;65567;55.684;37.570;2023-02-28T00:00:46;4.88;;;2.50;;
70216;SDS011;65567;55.684;37.570;2023-02-28T00:03:13;6.32;;;2.85;;
70216;SDS011;65567;55.684;37.570;2023-02-28T00:05:39;5.55;;;3.50;;
70216;SDS011;65567;55.684;37.570;2023-02-28T00:08:05;8.63;;;4.05;;
70216;SDS011;65567;55.684;37.570;2023-02-28T00:10:31;8.30;;;4.35;;
70216;SDS011;65567;55.684;37.570;2023-02-28T00:13:02;9.05;;;3.45;;
70216;SDS011;65567;55.684;37.570;2023-02-28T00:15:30;9.10;;;3.13;;
70216;SDS011;65567;55.684;37.570;2023-02-28T00:17:56;5.95;;;2.28;;
70216;SDS011;65567;55.684;37.570;2023-02-28T00:20:22;11.73;;;5.60;;
70216;SDS011;65567;55.684;37.570;2023-02-28T00:22:50;8.73;;;5.22;;
70216;SDS011;65567;55.684;37.570;2023-02-28T00:25:19;12.95;;;5.88;;
70216;SDS011;65567;55.684;37.570;2023-02-28T00:27:46;6.00;;;3.42;;
70216;SDS011;65567;55.684;37.570;2023-02-28T00:30:22;11.43;;;6.50;;
70216;SDS011;65567;55.684;37.570;2023-02-28T00:32:49;7.47;;;3.65;;
70216;SDS011;65567;55.684;37.570;2023-02-28T00:35:16;10.57;;;5.40;;
70216;SDS011;65567;55.684;37.570;2023-02-28T00:37:42;9.77;;;5.35;;
70216;SDS011;65567;55.684;37.570;2023-02-28T00:40:09;13.82;;;6.20;;
70216;SDS011;65567;55.684;37.570;2023-02-28T00:42:38;9.05;;;3.85;;
70216;SDS011;65567;55.684;37.570;2023-02-28T00:45:04;9.55;;;4.53;;
70216;SDS011;65567;55.684;37.570;2023-02-28T00:47:31;6.20;;;2.70;;
70216;SDS011;65567;55.684;37.570;2023-02-28T00:49:57;9.20;;;4.32;;
70216;SDS011;65567;55.684;37.570;2023-02-28T00:52:23;10.35;;;5.40;;
70216;SDS011;65567;55.684;37.570;2023-02-28T00:54:49;11.13;;;5.75;;
70216;SDS011;65567;55.684;37.570;2023-02-28T00:57:15;9.57;;;4.88;;
70216;SDS011;65567;55.684;37.570;2023-02-28T00:59:41;6.35;;;3.03;;
70216;SDS011;65567;55.684;37.570;2023-02-28T01:02:07;10.82;;;4.90;;
70216;SDS011;65567;55.684;37.570;2023-02-28T01:04:32;11.25;;;5.75;;
70216;SDS011;65567;55.684;37.570;2023-02-28T01:06:58;10.70;;;5.20;;
70216;SDS011;65567;55.684;37.570;2023-02-28T01:09:24;5.53;;;3.17;;
70216;SDS011;65567;55.684;37.570;2023-02-28T01:11:50;7.57;;;3.95;;
70216;SDS011;65567;55.684;37.570;2023-02-28T01:14:17;5.75;;;2.95;;
70216;SDS011;65567;55.684;37.570;2023-02-28T01:16:43;5.38;;;3.10;;
70216;SDS011;65567;55.684;37.570;2023-02-28T01:19:09;7.97;;;3.80;;
70216;SDS011;65567;55.684;37.570;2023-02-28T01:21:35;9.32;;;4.95;;
70216;SDS011;65567;55.684;37.570;2023-02-28T01:24:01;10.95;;;4.93;;
70216;SDS011;65567;55.684;37.570;2023-02-28T01:26:30;9.23;;;4.65;;
70216;SDS011;65567;55.684;37.570;2023-02-28T01:28:56;13.57;;;5.68;;
70216;SDS011;65567;55.684;37.570;2023-02-28T01:31:22;10.48;;;5.07;;
70216;SDS011;65567;55.684;37.570;2023-02-28T01:33:49;10.48;;;4.88;;
70216;SDS011;65567;55.684;37.570;2023-02-28T01:36:17;3.60;;;2.20;;
70216;SDS011;65567;55.684;37.570;2023-02-28T01:38:48;10.32;;;5.45;;
70216;SDS011;65567;55.684;37.570;2023-02-28T01:41:16;11.75;;;5.95;;
70216;SDS011;65567;55.684;37.570;2023-02-28T01:46:11;4.18;;;1.85;;
70216;SDS011;65567;55.684;37.570;2023-02-28T01:48:40;9.93;;;5.03;;
70216;SDS011;65567;55.684;37.570;2023-02-28T01:51:15;10.77;;;5.88;;
70216;SDS011;65567;55.684;37.570;2023-02-28T01:53:55;4.82;;;2.33;;
70216;SDS011;65567;55.684;37.570;2023-02-28T01:56:26;2.85;;;1.55;;
70216;SDS011;65567;55.684;37.570;2023-02-28T01:58:55;8.77;;;4.70;;
70216;SDS011;65567;55.684;37.570;2023-02-28T02:01:22;6.70;;;3.50;;
70216;SDS011;65567;55.684;37.570;2023-02-28T02:03:52;5.10;;;2.55;;
70216;SDS011;65567;55.684;37.570;2023-02-28T02:06:27;5.65;;;2.80;;
70216;SDS011;65567;55.684;37.570;2023-02-28T02:09:07;7.45;;;4.05;;
70216;SDS011;65567;55.684;37.570;2023-02-28T02:11:33;7.30;;;3.72;;
70216;SDS011;65567;55.684;37.570;2023-02-28T02:14:11;9.63;;;4.60;;
70216;SDS011;65567;55.684;37.570;2023-02-28T02:22:19;7.28;;;3.47;;
70216;SDS011;65567;55.684;37.570;2023-02-28T02:25:04;5.50;;;2.40;;
70216;SDS011;65567;55.684;37.570;2023-02-28T02:38:50;4.93;;;2.95;;
70216;SDS011;65567;55.684;37.570;2023-02-28T02:41:24;5.72;;;2.70;;
70216;SDS011;65567;55.684;37.570;2023-02-28T02:44:05;9.40;;;4.40;;
70216;SDS011;65567;55.684;37.570;2023-02-28T02:46:36;3.78;;;2.30;;
70216;SDS011;65567;55.684;37.570;2023-02-28T02:49:08;7.03;;;3.67;;
70216;SDS011;65567;55.684;37.570;2023-02-28T02:51:38;6.97;;;3.72;;
70216;SDS011;65567;55.684;37.570;2023-02-28T02:54:25;3.63;;;2.42;;
70216;SDS011;65567;55.684;37.570;2023-02-28T02:56:54;6.20;;;2.97;;
70216;SDS011;65567;55.684;37.570;2023-02-28T02:59:24;6.10;;;3.30;;
70216;SDS011;65567;55.684;37.570;2023-02-28T03:01:54;5.25;;;2.13;;
70216;SDS011;65567;55.684;37.570;2023-02-28T03:04:25;4.47;;;2.33;;
70216;SDS011;65567;55.684;37.570;2023-02-28T03:06:56;4.90;;;1.95;;
70216;SDS011;65567;55.684;37.570;2023-02-28T03:09:22;4.47;;;1.90;;
70216;SDS011;65567;55.684;37.570;2023-02-28T03:11:50;5.65;;;2.88;;
70216;SDS011;65567;55.684;37.570;2023-02-28T03:25:38;6.20;;;2.63;;
70216;SDS011;65567;55.684;37.570;2023-02-28T03:28:19;4.90;;;1.95;;
70216;SDS011;65567;55.684;37.570;2023-02-28T03:34:04;3.88;;;2.10;;
70216;SDS011;65567;55.684;37.570;2023-02-28T03:36:41;4.05;;;2.28;;
70216;SDS011;65567;55.684;37.570;2023-02-28T03:39:27;3.80;;;2.15;;
70216;SDS011;65567;55.684;37.570;2023-02-28T03:42:00;5.65;;;2.45;;
70216;SDS011;65567;55.684;37.570;2023-02-28T03:44:41;7.28;;;2.63;;
70216;SDS011;65567;55.684;37.570;2023-02-28T03:47:12;6.10;;;2.72;;
70216;SDS011;65567;55.684;37.570;2023-02-28T03:52:27;4.18;;;2.40;;
70216;SDS011;65567;55.684;37.570;2023-02-28T03:55:00;5.32;;;2.67;;
70216;SDS011;65567;55.684;37.570;2023-02-28T04:00:40;5.78;;;3.15;;
70216;SDS011;65567;55.684;37.570;2023-02-28T04:03:11;5.40;;;2.30;;
70216;SDS011;65567;55.684;37.570;2023-02-28T04:05:47;2.83;;;1.50;;
70216;SDS011;65567;55.684;37.570;2023-02-28T04:08:17;6.05;;;2.63;;
70216;SDS011;65567;55.684;37.570;2023-02-28T04:10:44;6.43;;;2.30;;
70216;SDS011;65567;55.684;37.570;2023-02-28T04:13:13;4.05;;;2.20;;
70216;SDS011;65567;55.684;37.570;2023-02-28T04:15:39;3.50;;;2.15;;
70216;SDS011;65567;55.684;37.570;2023-02-28T04:18:05;5.30;;;1.92;;
70216;SDS011;65567;55.684;37.570;2023-02-28T04:20:31;4.82;;;2.47;;
70216;SDS011;65567;55.684;37.570;2023-02-28T04:22:57;2.13;;;1.15;;
70216;SDS011;65567;55.684;37.570;2023-02-28T04:25:23;5.20;;;3.20;;
70216;SDS011;65567;55.684;37.570;2023-02-28T04:27:48;6.20;;;2.47;;
70216;SDS011;65567;55.684;37.570;2023-02-28T04:30:15;3.95;;;1.70;;
70216;SDS011;65567;55.684;37.570;2023-02-28T04:32:42;3.30;;;1.77;;
70216;SDS011;65567;55.684;37.570;2023-02-28T04:35:08;4.95;;;2.00;;
70216;SDS011;65567;55.684;37.570;2023-02-28T04:37:34;3.08;;;1.88;;
70216;SDS011;65567;55.684;37.570;2023-02-28T04:40:02;4.00;;;1.58;;
70216;SDS011;65567;55.684;37.570;2023-02-28T04:42:29;4.75;;;2.35;;
70216;SDS011;65567;55.684;37.570;2023-02-28T04:45:01;4.07;;;1.85;;
70216;SDS011;65567;55.684;37.570;2023-02-28T04:47:29;2.17;;;1.30;;
70216;SDS011;65567;55.684;37.570;2023-02-28T04:49:56;3.42;;;2.15;;
70216;SDS011;65567;55.684;37.570;2023-02-28T04:52:22;4.25;;;2.35;;
70216;SDS011;65567;55.684;37.570;2023-02-28T04:54:47;4.10;;;1.83;;
70216;SDS011;65567;55.684;37.570;2023-02-28T04:57:14;2.95;;;1.80;;
70216;SDS011;65567;55.684;37.570;2023-02-28T04:59:39;3.42;;;1.88;;
70216;SDS011;65567;55.684;37.570;2023-02-28T05:02:05;3.33;;;1.58;;
70216;SDS011;65567;55.684;37.570;2023-02-28T05:04:32;2.75;;;1.38;;
70216;SDS011;65567;55.684;37.570;2023-02-28T05:06:59;2.97;;;1.60;;
70216;SDS011;65567;55.684;37.570;2023-02-28T05:11:57;3.90;;;2.08;;
70216;SDS011;65567;55.684;37.570;2023-02-28T05:14:23;2.42;;;1.65;;
70216;SDS011;65567;55.684;37.570;2023-02-28T05:16:48;3.92;;;1.90;;
70216;SDS011;65567;55.684;37.570;2023-02-28T05:19:14;4.70;;;3.10;;
70216;SDS011;65567;55.684;37.570;2023-02-28T05:21:41;3.55;;;2.58;;
70216;SDS011;65567;55.684;37.570;2023-02-28T05:24:15;3.05;;;2.20;;
70216;SDS011;65567;55.684;37.570;2023-02-28T05:26:48;3.50;;;2.40;;
70216;SDS011;65567;55.684;37.570;2023-02-28T05:29:16;4.97;;;2.72;;
70216;SDS011;65567;55.684;37.570;2023-02-28T05:31:41;4.93;;;3.20;;
70216;SDS011;65567;55.684;37.570;2023-02-28T05:34:07;5.40;;;2.40;;
70216;SDS011;65567;55.684;37.570;2023-02-28T05:36:36;3.60;;;2.22;;
70216;SDS011;65567;55.684;37.570;2023-02-28T05:39:03;2.95;;;2.00;;
70216;SDS011;65567;55.684;37.570;2023-02-28T05:41:31;3.38;;;2.17;;
70216;SDS011;65567;55.684;37.570;2023-02-28T05:43:57;5.82;;;2.60;;
70216;SDS011;65567;55.684;37.570;2023-02-28T05:46:24;3.63;;;1.83;;
70216;SDS011;65567;55.684;37.570;2023-02-28T05:48:50;3.53;;;2.25;;
70216;SDS011;65567;55.684;37.570;2023-02-28T05:51:16;3.10;;;1.83;;
70216;SDS011;65567;55.684;37.570;2023-02-28T05:53:43;5.53;;;2.55;;
70216;SDS011;65567;55.684;37.570;2023-02-28T05:56:09;2.97;;;1.70;;
70216;SDS011;65567;55.684;37.570;2023-02-28T05:58:35;4.25;;;1.63;;
70216;SDS011;65567;55.684;37.570;2023-02-28T06:03:26;4.80;;;2.22;;
70216;SDS011;65567;55.684;37.570;2023-02-28T06:05:53;5.65;;;2.45;;
70216;SDS011;65567;55.684;37.570;2023-02-28T06:08:19;3.55;;;2.08;;
70216;SDS011;65567;55.684;37.570;2023-02-28T06:10:45;3.03;;;1.60;;
70216;SDS011;65567;55.684;37.570;2023-02-28T06:15:37;4.50;;;2.03;;
70216;SDS011;65567;55.684;37.570;2023-02-28T06:18:03;3.67;;;1.90;;
70216;SDS011;65567;55.684;37.570;2023-02-28T06:20:29;4.32;;;2.42;;
70216;SDS011;65567;55.684;37.570;2023-02-28T06:22:56;4.47;;;2.33;;
70216;SDS011;65567;55.684;37.570;2023-02-28T06:25:24;4.65;;;2.70;;
70216;SDS011;65567;55.684;37.570;2023-02-28T06:27:50;6.28;;;2.50;;
70216;SDS011;65567;55.684;37.570;2023-02-28T06:30:16;2.90;;;1.60;;
70216;SDS011;65567;55.684;37.570;2023-02-28T06:32:43;3.38;;;1.80;;
70216;SDS011;65567;55.684;37.570;2023-02-28T06:35:09;3.17;;;1.98;;
70216;SDS011;65567;55.684;37.570;2023-02-28T06:37:35;4.22;;;2.40;;
70216;SDS011;65567;55.684;37.570;2023-02-28T06:40:01;7.13;;;1.63;;
70216;SDS011;65567;55.684;37.570;2023-02-28T06:42:28;3.38;;;2.13;;
70216;SDS011;65567;55.684;37.570;2023-02-28T06:44:56;4.68;;;2.60;;
70216;SDS011;65567;55.684;37.570;2023-02-28T06:47:21;5.68;;;2.42;;
70216;SDS011;65567;55.684;37.570;2023-02-28T06:49:47;5.47;;;2.60;;
70216;SDS011;65567;55.684;37.570;2023-02-28T06:52:13;4.13;;;2.40;;
70216;SDS011;65567;55.684;37.570;2023-02-28T06:54:40;3.58;;;1.75;;
70216;SDS011;65567;55.684;37.570;2023-02-28T06:57:06;3.90;;;1.90;;
70216;SDS011;65567;55.684;37.570;2023-02-28T06:59:32;3.67;;;2.47;;
70216;SDS011;65567;55.684;37.570;2023-02-28T07:01:58;1.63;;;0.98;;
70216;SDS011;65567;55.684;37.570;2023-02-28T07:04:24;3.88;;;2.30;;
70216;SDS011;65567;55.684;37.570;2023-02-28T07:06:50;3.58;;;1.90;;
70216;SDS011;65567;55.684;37.570;2023-02-28T07:09:15;4.18;;;2.60;;
70216;SDS011;65567;55.684;37.570;2023-02-28T07:11:41;4.50;;;1.88;;
70216;SDS011;65567;55.684;37.570;2023-02-28T07:14:08;3.90;;;2.10;;
70216;SDS011;65567;55.684;37.570;2023-02-28T07:16:34;3.83;;;2.47;;
70216;SDS011;65567;55.684;37.570;2023-02-28T07:19:01;3.70;;;2.63;;
70216;SDS011;65567;55.684;37.570;2023-02-28T07:21:27;3.88;;;1.65;;
70216;SDS011;65567;55.684;37.570;2023-02-28T07:23:53;4.15;;;1.70;;
70216;SDS011;65567;55.684;37.570;2023-02-28T07:26:19;4.95;;;2.58;;
70216;SDS011;65567;55.684;37.570;2023-02-28T07:28:49;4.68;;;2.38;;
70216;SDS011;65567;55.684;37.570;2023-02-28T07:31:16;4.65;;;2.03;;
70216;SDS011;65567;55.684;37.570;2023-02-28T07:33:45;5.88;;;3.13;;
70216;SDS011;65567;55.684;37.570;2023-02-28T07:36:12;8.07;;;2.45;;
70216;SDS011;65567;55.684;37.570;2023-02-28T07:38:41;4.95;;;2.60;;
70216;SDS011;65567;55.684;37.570;2023-02-28T07:41:13;4.47;;;2.15;;
70216;SDS011;65567;55.684;37.570;2023-02-28T07:43:43;2.78;;;1.05;;
70216;SDS011;65567;55.684;37.570;2023-02-28T07:46:11;5.75;;;2.47;;
70216;SDS011;65567;55.684;37.570;2023-02-28T07:48:40;4.70;;;2.13;;
70216;SDS011;65567;55.684;37.570;2023-02-28T07:51:07;5.00;;;3.03;;
70216;SDS011;65567;55.684;37.570;2023-02-28T07:53:32;3.75;;;1.38;;
70216;SDS011;65567;55.684;37.570;2023-02-28T07:56:00;2.55;;;1.30;;
70216;SDS011;65567;55.684;37.570;2023-02-28T07:58:27;6.53;;;2.28;;
70216;SDS011;65567;55.684;37.570;2023-02-28T08:00:54;2.85;;;1.60;;
70216;SDS011;65567;55.684;37.570;2023-02-28T08:03:22;3.38;;;1.65;;
70216;SDS011;65567;55.684;37.570;2023-02-28T08:05:49;4.63;;;2.28;;
70216;SDS011;65567;55.684;37.570;2023-02-28T08:08:17;3.42;;;1.80;;
70216;SDS011;65567;55.684;37.570;2023-02-28T08:10:43;1.63;;;1.10;;
70216;SDS011;65567;55.684;37.570;2023-02-28T08:13:10;6.13;;;2.63;;
70216;SDS011;65567;55.684;37.570;2023-02-28T08:15:36;3.83;;;2.22;;
70216;SDS011;65567;55.684;37.570;2023-02-28T08:18:02;5.97;;;2.75;;
70216;SDS011;65567;55.684;37.570;2023-02-28T08:20:28;3.60;;;1.80;;
70216;SDS011;65567;55.684;37.570;2023-02-28T08:22:55;3.50;;;1.77;;
70216;SDS011;65567;55.684;37.570;2023-02-28T08:25:21;6.10;;;1.90;;
70216;SDS011;65567;55.684;37.570;2023-02-28T08:27:47;4.30;;;1.77;;
70216;SDS011;65567;55.684;37.570;2023-02-28T08:30:16;4.60;;;2.47;;
70216;SDS011;65567;55.684;37.570;2023-02-28T08:32:42;4.53;;;2.67;;
70216;SDS011;65567;55.684;37.570;2023-02-28T08:35:09;3.17;;;1.45;;
70216;SDS011;65567;55.684;37.570;2023-02-28T08:37:35;4.55;;;3.05;;
70216;SDS011;65567;55.684;37.570;2023-02-28T08:40:01;4.30;;;2.50;;
70216;SDS011;65567;55.684;37.570;2023-02-28T08:42:29;7.55;;;2.35;;
70216;SDS011;65567;55.684;37.570;2023-02-28T08:44:55;4.03;;;1.88;;
70216;SDS011;65567;55.684;37.570;2023-02-28T08:47:21;4.45;;;2.50;;
70216;SDS011;65567;55.684;37.570;2023-02-28T08:49:47;5.85;;;2.60;;
70216;SDS011;65567;55.684;37.570;2023-02-28T08:52:13;4.80;;;2.53;;
70216;SDS011;65567;55.684;37.570;2023-02-28T08:54:39;4.75;;;2.45;;
70216;SDS011;65567;55.684;37.570;2023-02-28T08:57:05;4.70;;;2.50;;
70216;SDS011;65567;55.684;37.570;2023-02-28T08:59:31;4.95;;;2.75;;
70216;SDS011;65567;55.684;37.570;2023-02-28T09:01:57;2.75;;;1.55;;
70216;SDS011;65567;55.684;37.570;2023-02-28T09:04:23;5.22;;;2.80;;
70216;SDS011;65567;55.684;37.570;2023-02-28T09:06:49;5.85;;;2.80;;
70216;SDS011;65567;55.684;37.570;2023-02-28T09:11:41;9.63;;;3.03;;
70216;SDS011;65567;55.684;37.570;2023-02-28T09:14:07;9.20;;;4.00;;
70216;SDS011;65567;55.684;37.570;2023-02-28T09:16:33;8.23;;;2.92;;
70216;SDS011;65567;55.684;37.570;2023-02-28T09:19:00;3.95;;;2.00;;
70216;SDS011;65567;55.684;37.570;2023-02-28T09:21:26;9.70;;;3.55;;
70216;SDS011;65567;55.684;37.570;2023-02-28T09:23:53;8.02;;;3.15;;
70216;SDS011;65567;55.684;37.570;2023-02-28T09:26:20;4.95;;;2.65;;
70216;SDS011;65567;55.684;37.570;2023-02-28T09:28:53;3.15;;;1.92;;
70216;SDS011;65567;55.684;37.570;2023-02-28T09:31:21;7.13;;;3.15;;
70216;SDS011;65567;55.684;37.570;2023-02-28T09:33:49;5.18;;;2.63;;
70216;SDS011;65567;55.684;37.570;2023-02-28T09:36:17;5.38;;;2.90;;
70216;SDS011;65567;55.684;37.570;2023-02-28T09:38:43;3.80;;;1.90;;
70216;SDS011;65567;55.684;37.570;2023-02-28T09:41:14;5.72;;;2.53;;
70216;SDS011;65567;55.684;37.570;2023-02-28T09:43:44;4.50;;;1.45;;
70216;SDS011;65567;55.684;37.570;2023-02-28T09:46:37;6.30;;;2.50;;
70216;SDS011;65567;55.684;37.570;2023-02-28T09:49:19;4.85;;;1.65;;
70216;SDS011;65567;55.684;37.570;2023-02-28T09:54:24;2.28;;;1.23;;
70216;SDS011;65567;55.684;37.570;2023-02-28T10:10:18;4.88;;;1.83;;
70216;SDS011;65567;55.684;37.570;2023-02-28T10:15:47;4.40;;;1.92;;
70216;SDS011;65567;55.684;37.570;2023-02-28T10:18:21;3.90;;;1.20;;
70216;SDS011;65567;55.684;37.570;2023-02-28T10:20:54;3.10;;;1.58;;
70216;SDS011;65567;55.684;37.570;2023-02-28T10:26:08;3.40;;;2.10;;
70216;SDS011;65567;55.684;37.570;2023-02-28T10:28:41;4.57;;;1.88;;
70216;SDS011;65567;55.684;37.570;2023-02-28T10:31:13;3.88;;;1.70;;
70216;SDS011;65567;55.684;37.570;2023-02-28T10:33:42;3.80;;;2.10;;
70216;SDS011;65567;55.684;37.570;2023-02-28T10:36:14;4.78;;;2.30;;
70216;SDS011;65567;55.684;37.570;2023-02-28T10:38:42;5.63;;;1.05;;
70216;SDS011;65567;55.684;37.570;2023-02-28T10:41:26;4.68;;;1.95;;
70216;SDS011;65567;55.684;37.570;2023-02-28T10:44:12;2.63;;;1.25;;
70216;SDS011;65567;55.684;37.570;2023-02-28T10:46:47;4.07;;;2.10;;
70216;SDS011;65567;55.684;37.570;2023-02-28T10:49:19;5.72;;;2.30;;
70216;SDS011;65567;55.684;37.570;2023-02-28T10:51:48;5.43;;;2.60;;
70216;SDS011;65567;55.684;37.570;2023-02-28T10:54:50;3.70;;;2.17;;
70216;SDS011;65567;55.684;37.570;2023-02-28T10:57:20;2.42;;;1.23;;
70216;SDS011;65567;55.684;37.570;2023-02-28T11:02:50;5.00;;;2.13;;
70216;SDS011;65567;55.684;37.570;2023-02-28T11:05:28;3.20;;;1.75;;
70216;SDS011;65567;55.684;37.570;2023-02-28T11:08:03;3.20;;;1.38;;
70216;SDS011;65567;55.684;37.570;2023-02-28T11:10:32;4.70;;;2.38;;
70216;SDS011;65567;55.684;37.570;2023-02-28T11:13:01;4.57;;;2.28;;
70216;SDS011;65567;55.684;37.570;2023-02-28T11:15:32;3.67;;;1.67;;
70216;SDS011;65567;55.684;37.570;2023-02-28T11:20:29;5.22;;;2.58;;
70216;SDS011;65567;55.684;37.570;2023-02-28T11:22:58;4.18;;;2.53;;
70216;SDS011;65567;55.684;37.570;2023-02-28T11:25:37;4.10;;;2.35;;
70216;SDS011;65567;55.684;37.570;2023-02-28T11:28:05;5.55;;;1.48;;
70216;SDS011;65567;55.684;37.570;2023-02-28T11:33:50;5.32;;;2.33;;
70216;SDS011;65567;55.684;37.570;2023-02-28T11:36:27;2.28;;;1.33;;
70216;SDS011;65567;55.684;37.570;2023-02-28T11:38:59;5.43;;;3.17;;
70216;SDS011;65567;55.684;37.570;2023-02-28T11:41:37;4.20;;;2.50;;
70216;SDS011;65567;55.684;37.570;2023-02-28T11:44:32;5.80;;;2.75;;
70216;SDS011;65567;55.684;37.570;2023-02-28T11:50:10;2.30;;;1.35;;
70216;SDS011;65567;55.684;37.570;2023-02-28T11:53:10;3.97;;;1.95;;
70216;SDS011;65567;55.684;37.570;2023-02-28T11:56:00;4.78;;;2.65;;
70216;SDS011;65567;55.684;37.570;2023-02-28T12:06:57;6.05;;;2.17;;
70216;SDS011;65567;55.684;37.570;2023-02-28T12:15:42;7.25;;;2.95;;
70216;SDS011;65567;55.684;37.570;2023-02-28T12:21:11;7.82;;;2.50;;
70216;SDS011;65567;55.684;37.570;2023-02-28T12:26:40;5.32;;;2.80;;
70216;SDS011;65567;55.684;37.570;2023-02-28T12:31:38;4.40;;;2.25;;
70216;SDS011;65567;55.684;37.570;2023-02-28T12:34:11;4.68;;;2.10;;
70216;SDS011;65567;55.684;37.570;2023-02-28T12:36:42;4.35;;;1.83;;
70216;SDS011;65567;55.684;37.570;2023-02-28T12:39:23;6.30;;;3.00;;
70216;SDS011;65567;55.684;37.570;2023-02-28T12:41:56;3.38;;;1.85;;
70216;SDS011;65567;55.684;37.570;2023-02-28T12:44:37;8.77;;;3.17;;
70216;SDS011;65567;55.684;37.570;2023-02-28T12:47:28;2.67;;;1.65;;
70216;SDS011;65567;55.684;37.570;2023-02-28T12:50:05;3.97;;;2.15;;
70216;SDS011;65567;55.684;37.570;2023-02-28T12:52:56;3.83;;;2.33;;
70216;SDS011;65567;55.684;37.570;2023-02-28T13:00:45;6.68;;;2.88;;
70216;SDS011;65567;55.684;37.570;2023-02-28T13:09:25;5.45;;;2.63;;
70216;SDS011;65567;55.684;37.570;2023-02-28T13:19:36;5.32;;;2.60;;
70216;SDS011;65567;55.684;37.570;2023-02-28T13:24:55;2.60;;;1.02;;
70216;SDS011;65567;55.684;37.570;2023-02-28T13:27:40;4.25;;;2.25;;
70216;SDS011;65567;55.684;37.570;2023-02-28T13:33:21;5.68;;;3.17;;
70216;SDS011;65567;55.684;37.570;2023-02-28T13:36:35;3.75;;;2.10;;
70216;SDS011;65567;55.684;37.570;2023-02-28T13:38:46;6.20;;;2.40;;
70216;SDS011;65567;55.684;37.570;2023-02-28T13:44:08;5.00;;;2.30;;
70216;SDS011;65567;55.684;37.570;2023-02-28T13:49:27;3.88;;;2.05;;
70216;SDS011;65567;55.684;37.570;2023-02-28T13:52:19;3.50;;;1.70;;
70216;SDS011;65567;55.684;37.570;2023-02-28T14:08:57;4.50;;;2.05;;
70216;SDS011;65567;55.684;37.570;2023-02-28T14:11:38;7.07;;;3.30;;
70216;SDS011;65567;55.684;37.570;2023-02-28T14:14:06;5.93;;;2.90;;
70216;SDS011;65567;55.684;37.570;2023-02-28T14:16:43;6.28;;;2.88;;
70216;SDS011;65567;55.684;37.570;2023-02-28T14:19:13;4.50;;;2.72;;
70216;SDS011;65567;55.684;37.570;2023-02-28T14:22:00;5.30;;;3.03;;
70216;SDS011;65567;55.684;37.570;2023-02-28T14:24:51;4.47;;;2.35;;
70216;SDS011;65567;55.684;37.570;2023-02-28T14:37:33;6.47;;;2.30;;
70216;SDS011;65567;55.684;37.570;2023-02-28T14:40:04;7.97;;;2.53;;
70216;SDS011;65567;55.684;37.570;2023-02-28T14:42:43;3.53;;;1.88;;
70216;SDS011;65567;55.684;37.570;2023-02-28T14:45:19;4.25;;;2.33;;
70216;SDS011;65567;55.684;37.570;2023-02-28T14:47:47;5.57;;;2.30;;
70216;SDS011;65567;55.684;37.570;2023-02-28T14:52:44;3.80;;;1.88;;
70216;SDS011;65567;55.684;37.570;2023-02-28T14:55:12;5.32;;;2.70;;
70216;SDS011;65567;55.684;37.570;2023-02-28T14:57:55;5.07;;;2.17;;
70216;SDS011;65567;55.684;37.570;2023-02-28T15:00:35;4.70;;;2.30;;
70216;SDS011;65567;55.684;37.570;2023-02-28T15:03:19;5.05;;;2.60;;
70216;SDS011;65567;55.684;37.570;2023-02-28T15:05:55;4.15;;;2.80;;
70216;SDS011;65567;55.684;37.570;2023-02-28T15:08:23;6.15;;;2.70;;
70216;SDS011;65567;55.684;37.570;2023-02-28T15:11:13;5.28;;;2.38;;
70216;SDS011;65567;55.684;37.570;2023-02-28T15:13:54;4.68;;;2.50;;
70216;SDS011;65567;55.684;37.570;2023-02-28T15:16:28;4.85;;;2.90;;
70216;SDS011;65567;55.684;37.570;2023-02-28T15:19:00;4.22;;;2.50;;
70216;SDS011;65567;55.684;37.570;2023-02-28T15:27:06;3.33;;;1.65;;
70216;SDS011;65567;55.684;37.570;2023-02-28T15:29:45;3.58;;;2.30;;
70216;SDS011;65567;55.684;37.570;2023-02-28T15:32:30;4.18;;;1.85;;
70216;SDS011;65567;55.684;37.570;2023-02-28T15:34:57;5.53;;;2.40;;
70216;SDS011;65567;55.684;37.570;2023-02-28T15:37:39;4.20;;;2.30;;
70216;SDS011;65567;55.684;37.570;2023-02-28T15:42:36;4.18;;;1.98;;
70216;SDS011;65567;55.684;37.570;2023-02-28T15:45:02;3.47;;;1.88;;
70216;SDS011;65567;55.684;37.570;2023-02-28T15:47:29;4.07;;;2.17;;
70216;SDS011;65567;55.684;37.570;2023-02-28T15:57:17;3.15;;;1.90;;
70216;SDS011;65567;55.684;37.570;2023-02-28T15:59:51;3.05;;;1.92;;
70216;SDS011;65567;55.684;37.570;2023-02-28T16:02:35;5.40;;;2.00;;
70216;SDS011;65567;55.684;37.570;2023-02-28T16:07:35;4.18;;;2.10;;
70216;SDS011;65567;55.684;37.570;2023-02-28T16:10:02;4.07;;;2.42;;
70216;SDS011;65567;55.684;37.570;2023-02-28T16:12:31;4.07;;;2.35;;
70216;SDS011;65567;55.684;37.570;2023-02-28T16:14:59;3.45;;;1.95;;
70216;SDS011;65567;55.684;37.570;2023-02-28T16:17:30;3.83;;;2.28;;
70216;SDS011;65567;55.684;37.570;2023-02-28T16:19:58;3.40;;;2.03;;
70216;SDS011;65567;55.684;37.570;2023-02-28T16:22:24;3.45;;;1.58;;
70216;SDS011;65567;55.684;37.570;2023-02-28T16:24:51;5.00;;;1.65;;
70216;SDS011;65567;55.684;37.570;2023-02-28T16:27:27;3.78;;;1.90;;
70216;SDS011;65567;55.684;37.570;2023-02-28T16:30:01;3.63;;;2.05;;
70216;SDS011;65567;55.684;37.570;2023-02-28T16:32:28;3.63;;;1.92;;
70216;SDS011;65567;55.684;37.570;2023-02-28T16:34:55;4.45;;;2.30;;
70216;SDS011;65567;55.684;37.570;2023-02-28T16:37:21;4.55;;;2.20;;
70216;SDS011;65567;55.684;37.570;2023-02-28T16:42:30;2.78;;;1.65;;
70216;SDS011;65567;55.684;37.570;2023-02-28T16:44:57;5.18;;;2.28;;
70216;SDS011;65567;55.684;37.570;2023-02-28T16:47:23;3.42;;;1.80;;
70216;SDS011;65567;55.684;37.570;2023-02-28T16:49:52;4.65;;;2.15;;
70216;SDS011;65567;55.684;37.570;2023-02-28T16:52:18;4.05;;;1.58;;
70216;SDS011;65567;55.684;37.570;2023-02-28T16:54:43;3.42;;;1.45;;
70216;SDS011;65567;55.684;37.570;2023-02-28T16:57:30;3.42;;;1.60;;
70216;SDS011;65567;55.684;37.570;2023-02-28T16:59:55;3.33;;;1.45;;
70216;SDS011;65567;55.684;37.570;2023-02-28T17:02:21;2.83;;;1.65;;
70216;SDS011;65567;55.684;37.570;2023-02-28T17:04:47;3.70;;;1.65;;
70216;SDS011;65567;55.684;37.570;2023-02-28T17:14:31;4.72;;;1.95;;
70216;SDS011;65567;55.684;37.570;2023-02-28T17:16:57;2.58;;;1.23;;
70216;SDS011;65567;55.684;37.570;2023-02-28T17:19:23;4.22;;;2.10;;
70216;SDS011;65567;55.684;37.570;2023-02-28T17:21:49;2.63;;;1.30;;
70216;SDS011;65567;55.684;37.570;2023-02-28T17:24:15;2.35;;;1.05;;
70216;SDS011;65567;55.684;37.570;2023-02-28T17:26:41;2.95;;;1.10;;
70216;SDS011;65567;55.684;37.570;2023-02-28T17:29:17;4.38;;;1.52;;
70216;SDS011;65567;55.684;37.570;2023-02-28T17:31:45;2.55;;;1.48;;
70216;SDS011;65567;55.684;37.570;2023-02-28T17:34:11;3.58;;;1.10;;
70216;SDS011;65567;55.684;37.570;2023-02-28T17:36:43;2.20;;;1.25;;
70216;SDS011;65567;55.684;37.570;2023-02-28T17:39:10;2.53;;;1.13;;
70216;SDS011;65567;55.684;37.570;2023-02-28T17:41:44;2.50;;;1.13;;
70216;SDS011;65567;55.684;37.570;2023-02-28T17:44:10;2.90;;;1.00;;
70216;SDS011;65567;55.684;37.570;2023-02-28T17:46:36;2.40;;;0.85;;
70216;SDS011;65567;55.684;37.570;2023-02-28T17:49:02;1.60;;;0.68;;
70216;SDS011;65567;55.684;37.570;2023-02-28T17:51:28;1.90;;;0.90;;
70216;SDS011;65567;55.684;37.570;2023-02-28T17:53:54;2.70;;;0.80;;
70216;SDS011;65567;55.684;37.570;2023-02-28T17:56:24;1.58;;;0.80;;
70216;SDS011;65567;55.684;37.570;2023-02-28T18:01:17;2.05;;;1.25;;
70216;SDS011;65567;55.684;37.570;2023-02-28T18:03:43;4.60;;;1.00;;